createdAt,value
2023-01-17T00:02:08.024Z,97735.81
2023-01-17T00:04:53.810Z,97733.84
2023-01-17T00:07:41.092Z,97750.19
2023-01-17T00:10:11.841Z,97743.38
2023-01-17T00:12:46.594Z,97754.53
2023-01-17T00:15:14.538Z,97759.13
2023-01-17T00:17:42.359Z,97761.00
2023-01-17T00:20:32.116Z,97760.28
2023-01-17T00:23:17.340Z,97762.16
2023-01-17T00:26:02.459Z,97760.53
2023-01-17T00:28:32.169Z,97765.59
2023-01-17T00:30:59.204Z,97758.59
2023-01-17T00:33:26.241Z,97768.75
2023-01-17T00:35:54.249Z,97773.91
2023-01-17T00:38:22.746Z,97782.41
2023-01-17T00:40:49.800Z,97789.56
2023-01-17T00:43:37.581Z,97786.72
2023-01-17T00:46:24.446Z,97796.34
2023-01-17T00:49:10.456Z,97805.09
2023-01-17T00:51:57.039Z,97804.41
2023-01-17T00:54:42.118Z,97813.75
2023-01-17T00:57:27.325Z,97818.03
2023-01-17T01:00:13.089Z,97836.78
2023-01-17T01:03:00.132Z,97820.47
2023-01-17T01:05:45.457Z,97822.06
2023-01-17T01:08:36.208Z,97844.41
2023-01-17T01:11:24.409Z,97835.75
2023-01-17T01:14:10.034Z,97845.06
2023-01-17T01:16:55.878Z,97845.81
2023-01-17T01:19:42.822Z,97849.34
2023-01-17T01:22:28.122Z,97853.63
2023-01-17T01:25:13.511Z,97868.41
2023-01-17T01:27:58.635Z,97869.25
2023-01-17T01:30:43.895Z,97882.19
2023-01-17T01:33:19.168Z,97876.31
2023-01-17T01:35:50.419Z,97885.63
2023-01-17T01:38:19.154Z,97889.22
2023-01-17T01:40:49.698Z,97896.19
2023-01-17T01:43:20.067Z,97895.56
2023-01-17T01:45:53.497Z,97908.53
2023-01-17T01:48:33.658Z,97911.13
2023-01-17T01:51:05.535Z,97912.88
2023-01-17T01:53:36.757Z,97913.63
2023-01-17T01:56:07.007Z,97928.38
2023-01-17T01:58:37.765Z,97926.72
2023-01-17T02:01:08.191Z,97929.41
2023-01-17T02:03:38.679Z,97937.16
2023-01-17T02:06:20.448Z,97940.47
2023-01-17T02:08:49.320Z,97937.97
2023-01-17T02:11:17.059Z,97944.84
2023-01-17T02:13:45.021Z,97944.66
2023-01-17T02:16:27.017Z,97950.69
2023-01-17T02:19:01.100Z,97945.72
2023-01-17T02:21:36.182Z,97956.13
2023-01-17T02:24:30.488Z,97958.78
2023-01-17T02:27:07.117Z,97968.19
2023-01-17T02:30:28.665Z,97970.94
2023-01-17T02:33:11.091Z,97962.25
2023-01-17T02:35:45.277Z,97976.97
2023-01-17T02:38:23.394Z,97969.31
2023-01-17T02:40:56.655Z,97986.44
2023-01-17T02:43:25.821Z,97980.66
2023-01-17T02:45:55.100Z,97988.56
2023-01-17T02:48:28.389Z,97995.50
2023-01-17T02:51:33.218Z,98002.47
2023-01-17T02:54:17.303Z,98002.00
2023-01-17T02:56:54.063Z,98004.50
2023-01-17T02:59:34.380Z,98005.56
2023-01-17T03:02:13.352Z,98010.78
2023-01-17T03:04:48.142Z,98008.19
2023-01-17T03:07:18.673Z,98017.53
2023-01-17T03:09:49.961Z,98014.03
2023-01-17T03:12:17.819Z,98014.03
2023-01-17T03:14:45.627Z,98012.31
2023-01-17T03:17:14.965Z,98014.75
2023-01-17T03:19:43.144Z,98017.22
2023-01-17T03:22:10.964Z,98023.25
2023-01-17T03:24:38.747Z,98028.19
2023-01-17T03:27:06.538Z,98039.31
2023-01-17T03:29:34.391Z,98038.44
2023-01-17T03:32:02.196Z,98041.13
2023-01-17T03:34:31.356Z,98054.13
2023-01-17T03:36:59.187Z,98042.84
2023-01-17T03:39:27.021Z,98047.13
2023-01-17T03:41:54.847Z,98042.84
2023-01-17T03:44:22.632Z,98043.69
2023-01-17T03:46:50.461Z,98051.44
2023-01-17T03:49:18.460Z,98050.47
2023-01-17T03:51:47.625Z,98056.59
2023-01-17T03:54:15.650Z,98060.00
2023-01-17T03:56:43.587Z,98058.47
2023-01-17T03:59:13.131Z,98061.03
2023-01-17T04:01:41.516Z,98055.66
2023-01-17T04:04:09.479Z,98069.72
2023-01-17T04:06:37.286Z,98050.81
2023-01-17T04:09:06.476Z,98066.28
2023-01-17T04:11:34.407Z,98067.09
2023-01-17T04:14:02.175Z,98067.22
2023-01-17T04:16:31.998Z,98055.13
2023-01-17T04:18:59.831Z,98062.88
2023-01-17T04:21:27.685Z,98070.59
2023-01-17T04:23:55.504Z,98055.09
2023-01-17T04:26:24.699Z,98047.28
2023-01-17T04:28:52.544Z,98055.03
2023-01-17T04:31:20.433Z,98043.97
2023-01-17T04:33:48.301Z,98052.69
2023-01-17T04:36:16.126Z,98049.97
2023-01-17T04:38:43.902Z,98057.81
2023-01-17T04:41:11.741Z,98041.38
2023-01-17T04:43:40.872Z,98055.91
2023-01-17T04:46:10.906Z,98054.25
2023-01-17T04:48:38.821Z,98050.97
2023-01-17T04:51:07.267Z,98066.63
2023-01-17T04:53:35.110Z,98075.16
2023-01-17T04:56:03.017Z,98073.50
2023-01-17T04:58:31.635Z,98077.03
2023-01-17T05:01:04.240Z,98085.88
2023-01-17T05:03:32.544Z,98080.72
2023-01-17T05:06:00.435Z,98078.53
2023-01-17T05:08:28.442Z,98070.78
2023-01-17T05:10:56.317Z,98076.03
2023-01-17T05:13:24.115Z,98079.47
2023-01-17T05:15:52.130Z,98078.44
2023-01-17T05:18:21.436Z,98076.13
2023-01-17T05:20:49.279Z,98071.75
2023-01-17T05:23:17.049Z,98080.19
2023-01-17T05:25:45.182Z,98069.19
2023-01-17T05:28:14.332Z,98076.13
2023-01-17T05:30:42.334Z,98079.47
2023-01-17T05:33:11.200Z,98077.97
2023-01-17T05:35:40.455Z,98074.53
2023-01-17T05:38:08.248Z,98074.47
2023-01-17T05:40:36.497Z,98075.56
2023-01-17T05:43:04.874Z,98088.38
2023-01-17T05:45:34.493Z,98087.56
2023-01-17T05:48:02.687Z,98097.88
2023-01-17T05:50:33.149Z,98094.47
2023-01-17T05:53:04.651Z,98096.94
2023-01-17T05:55:33.027Z,98103.81
2023-01-17T05:58:01.484Z,98099.53
2023-01-17T06:00:30.437Z,98106.38
2023-01-17T06:02:59.961Z,98107.19
2023-01-17T06:05:29.867Z,98112.28
2023-01-17T06:07:58.465Z,98118.34
2023-01-17T06:10:29.423Z,98115.59
2023-01-17T06:13:05.765Z,98123.34
2023-01-17T06:15:35.369Z,98122.41
2023-01-17T06:18:07.399Z,98121.69
2023-01-17T06:20:35.308Z,98124.13
2023-01-17T06:23:04.350Z,98118.97
2023-01-17T06:25:37.767Z,98121.47
2023-01-17T06:28:06.061Z,98124.13
2023-01-17T06:30:33.929Z,98119.25
2023-01-17T06:33:01.711Z,98123.59
2023-01-17T06:35:30.041Z,98126.13
2023-01-17T06:37:59.763Z,98127.00
2023-01-17T06:40:28.658Z,98122.06
2023-01-17T06:43:01.092Z,98124.63
2023-01-17T06:45:29.760Z,98117.78
2023-01-17T06:47:59.153Z,98126.34
2023-01-17T06:50:27.306Z,98121.13
2023-01-17T06:52:57.072Z,98129.78
2023-01-17T06:55:25.950Z,98137.47
2023-01-17T06:57:54.890Z,98133.19
2023-01-17T07:00:24.753Z,98140.97
2023-01-17T07:02:52.935Z,98141.03
2023-01-17T07:05:21.130Z,98147.06
2023-01-17T07:07:49.051Z,98144.47
2023-01-17T07:10:17.474Z,98146.25
2023-01-17T07:12:45.284Z,98142.91
2023-01-17T07:15:13.535Z,98148.19
2023-01-17T07:17:42.723Z,98143.25
2023-01-17T07:20:11.659Z,98146.63
2023-01-17T07:22:39.495Z,98145.78
2023-01-17T07:25:08.694Z,98132.94
2023-01-17T07:27:36.482Z,98143.25
2023-01-17T07:30:04.784Z,98148.47
2023-01-17T07:32:32.596Z,98140.94
2023-01-17T07:35:01.757Z,98129.94
2023-01-17T07:37:29.801Z,98140.22
2023-01-17T07:39:57.566Z,98142.00
2023-01-17T07:42:25.440Z,98141.22
2023-01-17T07:44:53.224Z,98143.06
2023-01-17T07:47:21.252Z,98151.66
2023-01-17T07:49:49.061Z,98143.06
2023-01-17T07:52:18.410Z,98144.81
2023-01-17T07:54:46.261Z,98140.63
2023-01-17T07:57:14.175Z,98148.41
2023-01-17T07:59:41.942Z,98152.75
2023-01-17T08:02:17.564Z,98151.03
2023-01-17T08:04:45.420Z,98147.81
2023-01-17T08:07:14.085Z,98153.75
2023-01-17T08:09:44.671Z,98156.06
2023-01-17T08:12:12.541Z,98154.00
2023-01-17T08:14:40.303Z,98147.75
2023-01-17T08:17:08.745Z,98149.25
2023-01-17T08:19:36.494Z,98143.06
2023-01-17T08:22:04.420Z,98142.91
2023-01-17T08:24:32.163Z,98146.19
2023-01-17T08:27:01.439Z,98144.38
2023-01-17T08:29:29.481Z,98140.00
2023-01-17T08:31:57.377Z,98140.81
2023-01-17T08:34:26.114Z,98143.34
2023-01-17T08:36:54.168Z,98134.66
2023-01-17T08:39:22.324Z,98143.19
2023-01-17T08:41:50.337Z,98144.59
2023-01-17T08:44:20.053Z,98150.38
2023-01-17T08:46:47.891Z,98153.00
2023-01-17T08:49:15.711Z,98150.22
2023-01-17T08:51:43.746Z,98158.19
2023-01-17T08:54:13.275Z,98153.63
2023-01-17T08:56:42.710Z,98152.56
2023-01-17T08:59:11.612Z,98161.84
2023-01-17T09:01:41.675Z,98161.53
2023-01-17T09:04:09.803Z,98169.72
2023-01-17T09:06:38.078Z,98169.38
2023-01-17T09:09:07.106Z,98162.84
2023-01-17T09:11:35.508Z,98166.00
2023-01-17T09:14:03.482Z,98161.19
2023-01-17T09:16:32.048Z,98163.09
2023-01-17T09:19:01.602Z,98158.78
2023-01-17T09:21:29.407Z,98157.56
2023-01-17T09:23:57.208Z,98153.06
2023-01-17T09:26:27.155Z,98154.56
2023-01-17T09:28:55.005Z,98152.75
2023-01-17T09:31:24.705Z,98147.50
2023-01-17T09:33:53.156Z,98146.25
2023-01-17T09:36:23.862Z,98154.03
2023-01-17T09:38:57.451Z,98147.94
2023-01-17T09:41:28.475Z,98159.44
2023-01-17T09:44:02.449Z,98159.19
2023-01-17T09:46:33.305Z,98158.66
2023-01-17T09:49:08.296Z,98158.34
2023-01-17T09:51:37.948Z,98175.25
2023-01-17T09:54:06.462Z,98174.81
2023-01-17T09:56:38.718Z,98170.63
2023-01-17T09:59:33.201Z,98168.88
2023-01-17T10:02:17.055Z,98167.16
2023-01-17T10:05:14.554Z,98168.28
2023-01-17T10:07:58.916Z,98166.03
2023-01-17T10:10:38.389Z,98175.69
2023-01-17T10:13:19.219Z,98166.50
2023-01-17T10:16:13.448Z,98170.81
2023-01-17T10:18:56.142Z,98180.78
2023-01-17T10:21:30.688Z,98174.81
2023-01-17T10:24:18.413Z,98168.91
2023-01-17T10:26:49.125Z,98170.84
2023-01-17T10:29:20.978Z,98170.47
2023-01-17T10:31:55.186Z,98164.69
2023-01-17T10:34:28.903Z,98168.94
2023-01-17T10:37:02.876Z,98170.94
2023-01-17T10:39:32.275Z,98165.88
2023-01-17T10:42:07.572Z,98162.09
2023-01-17T10:44:44.359Z,98164.06
2023-01-17T10:47:20.532Z,98163.09
2023-01-17T10:49:52.835Z,98163.28
2023-01-17T10:52:33.912Z,98162.03
2023-01-17T10:55:13.976Z,98169.56
2023-01-17T10:57:43.392Z,98160.06
2023-01-17T11:00:43.835Z,98167.44
2023-01-17T11:03:13.272Z,98164.78
2023-01-17T11:05:42.762Z,98161.47
2023-01-17T11:08:13.405Z,98156.38
2023-01-17T11:10:44.822Z,98155.22
2023-01-17T11:13:26.906Z,98151.06
2023-01-17T11:15:58.694Z,98146.13
2023-01-17T11:18:30.084Z,98147.53
2023-01-17T11:21:11.949Z,98144.56
2023-01-17T11:23:42.595Z,98141.84
2023-01-17T11:26:14.027Z,98134.97
2023-01-17T11:28:42.308Z,98131.38
2023-01-17T11:31:25.926Z,98128.34
2023-01-17T11:34:09.602Z,98129.50
2023-01-17T11:36:43.149Z,98129.50
2023-01-17T11:39:29.075Z,98130.59
2023-01-17T11:41:58.284Z,98125.75
2023-01-17T11:44:28.789Z,98141.25
2023-01-17T11:47:18.933Z,98136.63
2023-01-17T11:49:48.563Z,98129.63
2023-01-17T11:52:23.378Z,98127.16
2023-01-17T11:54:53.712Z,98122.97
2023-01-17T11:57:26.966Z,98130.91
2023-01-17T12:00:04.629Z,98126.94
2023-01-17T12:02:59.685Z,98133.78
2023-01-17T12:05:53.733Z,98127.59
2023-01-17T12:08:32.163Z,98130.56
2023-01-17T12:11:07.663Z,98117.28
2023-01-17T12:14:00.933Z,98110.00
2023-01-17T12:16:44.652Z,98111.44
2023-01-17T12:19:34.539Z,98110.38
2023-01-17T12:22:19.218Z,98104.19
2023-01-17T12:25:02.777Z,98103.78
2023-01-17T12:27:41.977Z,98098.44
2023-01-17T12:30:39.123Z,98089.16
2023-01-17T12:33:26.291Z,98089.31
2023-01-17T12:35:57.325Z,98084.97
2023-01-17T12:38:32.947Z,98091.28
2023-01-17T12:41:06.307Z,98083.81
2023-01-17T12:43:38.034Z,98074.81
2023-01-17T12:46:16.881Z,98068.00
2023-01-17T12:48:45.436Z,98067.47
2023-01-17T12:51:19.041Z,98072.75
2023-01-17T12:53:57.679Z,98063.59
2023-01-17T12:56:30.077Z,98062.84
2023-01-17T12:59:20.149Z,98073.25
2023-01-17T13:01:57.583Z,98063.75
2023-01-17T13:04:28.711Z,98068.06
2023-01-17T13:07:07.454Z,98060.38
2023-01-17T13:09:40.504Z,98060.84
2023-01-17T13:12:13.876Z,98053.94
2023-01-17T13:14:42.145Z,98052.19
2023-01-17T13:17:28.001Z,98069.56
2023-01-17T13:20:00.900Z,98057.56
2023-01-17T13:22:29.901Z,98065.94
2023-01-17T13:25:04.556Z,98064.53
2023-01-17T13:27:53.951Z,98076.53
2023-01-17T13:30:36.406Z,98066.09
2023-01-17T13:33:37.312Z,98067.91
2023-01-17T13:36:19.582Z,98062.53
2023-01-17T13:39:01.636Z,98065.50
2023-01-17T13:41:43.139Z,98066.69
2023-01-17T13:44:25.396Z,98070.41
2023-01-17T13:46:55.726Z,98070.34
2023-01-17T13:49:34.895Z,98072.94
2023-01-17T13:52:07.518Z,98072.41
2023-01-17T13:54:43.356Z,98062.19
2023-01-17T13:57:36.177Z,98058.75
2023-01-17T14:00:41.851Z,98071.59
2023-01-17T14:03:11.844Z,98075.56
2023-01-17T14:05:57.367Z,98071.75
2023-01-17T14:08:27.268Z,98071.72
2023-01-17T14:11:06.239Z,98076.41
2023-01-17T14:13:37.091Z,98078.00
2023-01-17T14:16:23.933Z,98083.47
2023-01-17T14:18:53.246Z,98078.59
2023-01-17T14:21:24.478Z,98079.31
2023-01-17T14:24:16.692Z,98075.03
2023-01-17T14:26:48.226Z,98080.53
2023-01-17T14:29:53.243Z,98070.44
2023-01-17T14:32:23.549Z,98075.41
2023-01-17T14:34:53.043Z,98072.25
2023-01-17T14:37:45.701Z,98077.81
2023-01-17T14:40:20.431Z,98069.06
2023-01-17T14:42:53.515Z,98075.09
2023-01-17T14:45:27.424Z,98073.25
2023-01-17T14:47:57.254Z,98068.78
2023-01-17T14:50:29.322Z,98082.84
2023-01-17T14:53:18.365Z,98076.59
2023-01-17T14:55:56.734Z,98074.34
2023-01-17T14:58:26.595Z,98069.66
2023-01-17T15:00:59.825Z,98065.47
2023-01-17T15:03:28.363Z,98069.06
2023-01-17T15:05:57.991Z,98077.09
2023-01-17T15:08:35.321Z,98069.56
2023-01-17T15:11:08.562Z,98073.06
2023-01-17T15:13:44.770Z,98075.09
2023-01-17T15:16:22.365Z,98076.38
2023-01-17T15:18:50.583Z,98078.44
2023-01-17T15:21:20.943Z,98080.00
2023-01-17T15:23:53.986Z,98083.84
2023-01-17T15:26:25.412Z,98078.06
2023-01-17T15:28:54.378Z,98064.22
2023-01-17T15:31:39.978Z,98069.75
2023-01-17T15:34:10.190Z,98063.38
2023-01-17T15:36:38.515Z,98063.38
2023-01-17T15:39:20.012Z,98066.50
2023-01-17T15:41:49.701Z,98076.16
2023-01-17T15:44:33.383Z,98081.63
2023-01-17T15:47:28.984Z,98075.28
2023-01-17T15:49:57.105Z,98079.53
2023-01-17T15:52:24.953Z,98081.56
2023-01-17T15:54:58.749Z,98089.53
2023-01-17T15:57:28.670Z,98082.47
2023-01-17T16:00:00.569Z,98093.00
2023-01-17T16:02:34.202Z,98088.97
2023-01-17T16:05:04.199Z,98097.22
2023-01-17T16:07:35.037Z,98098.63
2023-01-17T16:10:09.534Z,98095.41
2023-01-17T16:12:37.322Z,98098.38
2023-01-17T16:15:12.771Z,98089.03
2023-01-17T16:17:42.603Z,98099.13
2023-01-17T16:20:16.033Z,98098.28
2023-01-17T16:22:44.614Z,98103.56
2023-01-17T16:25:17.434Z,98110.69
2023-01-17T16:27:45.804Z,98107.84
2023-01-17T16:30:16.412Z,98111.88
2023-01-17T16:32:46.857Z,98117.78
2023-01-17T16:35:18.922Z,98112.13
2023-01-17T16:37:50.261Z,98119.31
2023-01-17T16:40:21.094Z,98116.53
2023-01-17T16:42:49.148Z,98113.97
2023-01-17T16:45:18.003Z,98122.69
2023-01-17T16:47:48.129Z,98114.19
2023-01-17T16:50:18.106Z,98122.81
2023-01-17T16:52:45.945Z,98122.56
2023-01-17T16:55:16.496Z,98133.66
2023-01-17T16:57:45.840Z,98135.34
2023-01-17T17:00:14.473Z,98126.84
2023-01-17T17:02:42.397Z,98134.03
2023-01-17T17:05:11.642Z,98141.00
2023-01-17T17:07:42.816Z,98138.50
2023-01-17T17:10:11.592Z,98142.00
2023-01-17T17:12:39.503Z,98127.56
2023-01-17T17:15:10.209Z,98139.78
2023-01-17T17:17:39.104Z,98121.94
2023-01-17T17:20:10.596Z,98141.75
2023-01-17T17:22:38.626Z,98140.16
2023-01-17T17:25:07.702Z,98145.47
2023-01-17T17:27:35.623Z,98153.38
2023-01-17T17:30:03.419Z,98147.44
2023-01-17T17:32:32.605Z,98157.22
2023-01-17T17:35:00.482Z,98157.16
2023-01-17T17:37:29.112Z,98153.09
2023-01-17T17:39:57.126Z,98154.28
2023-01-17T17:42:25.617Z,98165.59
2023-01-17T17:44:53.702Z,98162.31
2023-01-17T17:47:21.571Z,98170.88
2023-01-17T17:49:50.734Z,98174.66
2023-01-17T17:52:18.564Z,98177.38
2023-01-17T17:54:46.323Z,98174.94
2023-01-17T17:57:14.348Z,98180.94
2023-01-17T17:59:42.125Z,98182.59
2023-01-17T18:02:11.600Z,98187.06
2023-01-17T18:04:39.758Z,98183.88
2023-01-17T18:07:08.964Z,98189.25
2023-01-17T18:09:36.772Z,98190.91
2023-01-17T18:12:05.376Z,98193.66
2023-01-17T18:14:33.964Z,98196.31
2023-01-17T18:17:01.826Z,98186.34
2023-01-17T18:19:29.793Z,98201.81
2023-01-17T18:21:58.145Z,98205.53
2023-01-17T18:24:28.327Z,98214.09
2023-01-17T18:26:57.890Z,98215.06
2023-01-17T18:29:27.350Z,98222.22
2023-01-17T18:31:55.759Z,98218.78
2023-01-17T18:34:27.008Z,98224.13
2023-01-17T18:36:54.905Z,98229.16
2023-01-17T18:39:25.393Z,98225.59
2023-01-17T18:41:55.103Z,98228.91
2023-01-17T18:44:23.226Z,98226.28
2023-01-17T18:46:51.431Z,98222.34
2023-01-17T18:49:19.504Z,98227.44
2023-01-17T18:51:50.578Z,98226.69
2023-01-17T18:54:19.891Z,98230.34
2023-01-17T18:56:48.126Z,98222.78
2023-01-17T18:59:19.695Z,98244.13
2023-01-17T19:01:47.970Z,98232.19
2023-01-17T19:04:17.465Z,98237.38
2023-01-17T19:06:47.125Z,98240.06
2023-01-17T19:09:16.294Z,98242.75
2023-01-17T19:11:45.178Z,98238.56
2023-01-17T19:14:14.398Z,98242.84
2023-01-17T19:16:44.341Z,98257.38
2023-01-17T19:19:13.859Z,98235.19
2023-01-17T19:21:41.792Z,98249.75
2023-01-17T19:24:13.029Z,98258.44
2023-01-17T19:26:41.190Z,98263.56
2023-01-17T19:29:08.982Z,98262.78
2023-01-17T19:31:42.335Z,98263.72
2023-01-17T19:34:14.051Z,98269.72
2023-01-17T19:36:42.444Z,98268.06
2023-01-17T19:39:10.929Z,98276.63
2023-01-17T19:41:42.599Z,98280.19
2023-01-17T19:44:12.058Z,98272.50
2023-01-17T19:46:39.937Z,98281.91
2023-01-17T19:49:09.445Z,98284.56
2023-01-17T19:51:39.362Z,98275.19
2023-01-17T19:54:08.454Z,98281.38
2023-01-17T19:56:36.680Z,98291.66
2023-01-17T19:59:04.658Z,98294.31
2023-01-17T20:01:34.483Z,98301.25
2023-01-17T20:04:03.223Z,98297.91
2023-01-17T20:06:33.329Z,98297.03
2023-01-17T20:09:02.956Z,98304.72
2023-01-17T20:11:30.811Z,98307.22
2023-01-17T20:14:00.234Z,98311.59
2023-01-17T20:16:30.053Z,98308.25
2023-01-17T20:18:59.144Z,98313.38
2023-01-17T20:21:28.848Z,98320.19
2023-01-17T20:23:58.950Z,98320.19
2023-01-17T20:26:34.508Z,98320.25
2023-01-17T20:29:06.795Z,98322.88
2023-01-17T20:31:38.157Z,98326.34
2023-01-17T20:34:07.213Z,98328.13
2023-01-17T20:36:36.969Z,98328.13
2023-01-17T20:39:06.648Z,98325.59
2023-01-17T20:41:37.821Z,98328.16
2023-01-17T20:44:07.167Z,98333.34
2023-01-17T20:46:40.402Z,98332.53
2023-01-17T20:49:12.969Z,98336.88
2023-01-17T20:51:41.271Z,98334.38
2023-01-17T20:54:13.239Z,98337.06
2023-01-17T20:56:43.281Z,98336.22
2023-01-17T20:59:15.319Z,98321.63
2023-01-17T21:01:44.573Z,98342.97
2023-01-17T21:04:12.956Z,98344.69
2023-01-17T21:06:41.846Z,98344.81
2023-01-17T21:09:12.951Z,98339.63
2023-01-17T21:11:42.247Z,98352.41
2023-01-17T21:14:10.552Z,98355.00
2023-01-17T21:16:38.732Z,98359.28
2023-01-17T21:19:09.114Z,98357.59
2023-01-17T21:21:36.956Z,98359.34
2023-01-17T21:24:05.952Z,98357.69
2023-01-17T21:26:44.493Z,98357.66
2023-01-17T21:29:15.820Z,98357.66
2023-01-17T21:31:45.136Z,98367.88
2023-01-17T21:34:13.615Z,98364.50
2023-01-17T21:36:43.130Z,98364.53
2023-01-17T21:39:13.632Z,98367.91
2023-01-17T21:41:43.134Z,98367.06
2023-01-17T21:44:19.654Z,98375.69
2023-01-17T21:46:48.157Z,98374.78
2023-01-17T21:49:17.109Z,98376.56
2023-01-17T21:52:02.640Z,98375.72
2023-01-17T21:54:48.263Z,98374.91
2023-01-17T21:57:35.188Z,98378.25
2023-01-17T22:00:06.312Z,98379.13
2023-01-17T22:02:39.780Z,98380.91
2023-01-17T22:05:08.753Z,98383.47
2023-01-17T22:07:38.916Z,98385.13
2023-01-17T22:10:08.506Z,98385.94
2023-01-17T22:12:36.607Z,98383.34
2023-01-17T22:15:07.186Z,98380.81
2023-01-17T22:17:38.209Z,98390.13
2023-01-17T22:20:11.485Z,98396.94
2023-01-17T22:22:39.319Z,98393.50
2023-01-17T22:25:09.308Z,98385.81
2023-01-17T22:27:37.360Z,98396.00
2023-01-17T22:30:12.814Z,98395.16
2023-01-17T22:32:40.848Z,98400.31
2023-01-17T22:35:09.648Z,98397.81
2023-01-17T22:37:37.635Z,98402.09
2023-01-17T22:40:06.496Z,98400.31
2023-01-17T22:42:35.151Z,98395.22
2023-01-17T22:47:33.086Z,98407.19
2023-01-17T22:50:00.982Z,98409.72
2023-01-17T22:52:29.119Z,98406.31
2023-01-17T22:54:57.173Z,98400.38
2023-01-17T22:57:25.487Z,98409.81
2023-01-17T22:59:53.773Z,98414.91
2023-01-17T23:02:21.743Z,98414.94
2023-01-17T23:04:51.283Z,98403.06
2023-01-17T23:07:19.119Z,98410.72
2023-01-17T23:09:47.003Z,98403.91
2023-01-17T23:12:14.922Z,98406.38
2023-01-17T23:15:00.541Z,98396.13
2023-01-17T23:17:46.151Z,98397.00
2023-01-17T23:20:15.144Z,98397.00
2023-01-17T23:22:43.236Z,98401.28
2023-01-17T23:25:13.306Z,98388.47
2023-01-17T23:28:00.841Z,98403.03
2023-01-17T23:30:34.526Z,98389.41
2023-01-17T23:33:05.913Z,98393.69
2023-01-17T23:35:41.714Z,98396.31
2023-01-17T23:38:30.043Z,98394.66
2023-01-17T23:41:20.165Z,98389.56
2023-01-17T23:43:51.734Z,98377.66
2023-01-17T23:46:19.753Z,98388.78
2023-01-17T23:48:48.141Z,98376.88
2023-01-17T23:51:17.490Z,98384.56
2023-01-17T23:53:45.351Z,98388.00
2023-01-17T23:56:16.160Z,98384.63
2023-01-17T23:58:44.700Z,98388.88
